sensor_id;sensor_type;location;lat;lon;timestamp;pressure;altitude;pressure_sealevel;temperature;humidity
38616;BME280;24370;51.986;4.666;2023-03-15T00:01:10;101263.69;;;8.58;63.18
38616;BME280;24370;51.986;4.666;2023-03-15T00:03:39;101264.81;;;9.36;61.91
38616;BME280;24370;51.986;4.666;2023-03-15T00:06:04;101269.16;;;9.26;60.25
38616;BME280;24370;51.986;4.666;2023-03-15T00:08:33;101269.81;;;8.68;62.55
38616;BME280;24370;51.986;4.666;2023-03-15T00:10:59;101263.94;;;9.32;61.17
38616;BME280;24370;51.986;4.666;2023-03-15T00:13:25;101261.38;;;9.83;60.16
38616;BME280;24370;51.986;4.666;2023-03-15T00:15:52;101256.16;;;9.99;58.72
38616;BME280;24370;51.986;4.666;2023-03-15T00:18:20;101258.75;;;10.07;59.22
38616;BME280;24370;51.986;4.666;2023-03-15T00:20:45;101261.34;;;10.27;58.57
38616;BME280;24370;51.986;4.666;2023-03-15T00:23:12;101270.09;;;10.09;58.53
38616;BME280;24370;51.986;4.666;2023-03-15T00:25:37;101277.91;;;9.56;61.20
38616;BME280;24370;51.986;4.666;2023-03-15T00:28:03;101280.50;;;9.65;61.46
38616;BME280;24370;51.986;4.666;2023-03-15T00:30:28;101276.16;;;10.45;58.50
38616;BME280;24370;51.986;4.666;2023-03-15T00:32:54;101281.41;;;9.89;59.10
38616;BME280;24370;51.986;4.666;2023-03-15T00:35:20;101280.50;;;10.41;57.96
38616;BME280;24370;51.986;4.666;2023-03-15T00:37:46;101300.53;;;9.82;59.26
38616;BME280;24370;51.986;4.666;2023-03-15T00:40:12;101295.25;;;9.26;60.76
38616;BME280;24370;51.986;4.666;2023-03-15T00:42:39;101291.81;;;10.29;57.32
38616;BME280;24370;51.986;4.666;2023-03-15T00:45:05;101288.34;;;10.44;57.19
38616;BME280;24370;51.986;4.666;2023-03-15T00:47:34;101300.53;;;10.50;56.33
38616;BME280;24370;51.986;4.666;2023-03-15T00:49:59;101307.50;;;9.83;58.99
38616;BME280;24370;51.986;4.666;2023-03-15T00:52:24;101301.41;;;10.44;57.11
38616;BME280;24370;51.986;4.666;2023-03-15T00:54:51;101305.78;;;10.38;57.18
38616;BME280;24370;51.986;4.666;2023-03-15T00:57:17;101303.94;;;10.74;55.86
38616;BME280;24370;51.986;4.666;2023-03-15T00:59:42;101309.19;;;10.80;54.29
38616;BME280;24370;51.986;4.666;2023-03-15T01:02:09;101317.09;;;10.04;55.57
38616;BME280;24370;51.986;4.666;2023-03-15T01:04:34;101300.53;;;10.25;57.09
38616;BME280;24370;51.986;4.666;2023-03-15T01:07:00;101307.50;;;10.23;56.74
38616;BME280;24370;51.986;4.666;2023-03-15T01:09:25;101304.84;;;10.62;55.32
38616;BME280;24370;51.986;4.666;2023-03-15T01:11:50;101304.91;;;10.42;54.95
38616;BME280;24370;51.986;4.666;2023-03-15T01:14:16;101313.38;;;11.16;52.92
38616;BME280;24370;51.986;4.666;2023-03-15T01:16:43;101306.56;;;10.80;54.15
38616;BME280;24370;51.986;4.666;2023-03-15T01:19:09;101306.59;;;10.61;54.15
38616;BME280;24370;51.986;4.666;2023-03-15T01:21:34;101309.22;;;10.61;54.41
38616;BME280;24370;51.986;4.666;2023-03-15T01:23:59;101316.16;;;10.68;54.67
38616;BME280;24370;51.986;4.666;2023-03-15T01:26:25;101319.69;;;10.47;55.14
38616;BME280;24370;51.986;4.666;2023-03-15T01:28:50;101331.91;;;10.50;55.43
38616;BME280;24370;51.986;4.666;2023-03-15T01:31:22;101333.63;;;10.20;55.25
38616;BME280;24370;51.986;4.666;2023-03-15T01:33:47;101338.84;;;10.12;55.87
38616;BME280;24370;51.986;4.666;2023-03-15T01:36:13;101339.72;;;10.28;55.74
38616;BME280;24370;51.986;4.666;2023-03-15T01:38:39;101348.44;;;10.23;55.47
38616;BME280;24370;51.986;4.666;2023-03-15T01:41:04;101345.84;;;10.38;55.00
38616;BME280;24370;51.986;4.666;2023-03-15T01:43:33;101351.91;;;10.23;55.04
38616;BME280;24370;51.986;4.666;2023-03-15T01:49:21;101359.75;;;10.29;54.76
38616;BME280;24370;51.986;4.666;2023-03-15T01:51:59;101360.63;;;10.25;54.56
38616;BME280;24370;51.986;4.666;2023-03-15T01:54:30;101367.59;;;10.25;54.72
38616;BME280;24370;51.986;4.666;2023-03-15T01:57:05;101376.31;;;10.27;55.20
38616;BME280;24370;51.986;4.666;2023-03-15T01:59:35;101370.22;;;10.66;53.84
38616;BME280;24370;51.986;4.666;2023-03-15T02:02:04;101377.19;;;10.30;54.14
38616;BME280;24370;51.986;4.666;2023-03-15T02:04:36;101383.22;;;9.88;56.89
38616;BME280;24370;51.986;4.666;2023-03-15T02:07:03;101372.81;;;10.32;55.76
38616;BME280;24370;51.986;4.666;2023-03-15T02:09:56;101375.44;;;10.26;56.18
38616;BME280;24370;51.986;4.666;2023-03-15T02:12:24;101372.84;;;10.37;55.08
38616;BME280;24370;51.986;4.666;2023-03-15T02:14:50;101371.06;;;10.68;54.52
38616;BME280;24370;51.986;4.666;2023-03-15T02:17:18;101378.94;;;10.53;54.10
38616;BME280;24370;51.986;4.666;2023-03-15T02:20:08;101379.72;;;10.98;53.86
38616;BME280;24370;51.986;4.666;2023-03-15T02:23:01;101379.75;;;10.94;53.62
38616;BME280;24370;51.986;4.666;2023-03-15T02:28:03;101399.81;;;10.84;53.73
38616;BME280;24370;51.986;4.666;2023-03-15T02:30:30;101403.31;;;10.72;54.03
38616;BME280;24370;51.986;4.666;2023-03-15T02:32:57;101398.03;;;10.89;53.33
38616;BME280;24370;51.986;4.666;2023-03-15T02:35:30;101397.13;;;11.09;53.45
38616;BME280;24370;51.986;4.666;2023-03-15T02:37:58;101400.69;;;10.78;53.98
38616;BME280;24370;51.986;4.666;2023-03-15T02:40:25;101412.91;;;10.72;54.59
38616;BME280;24370;51.986;4.666;2023-03-15T02:42:55;101413.78;;;10.63;53.99
38616;BME280;24370;51.986;4.666;2023-03-15T02:45:22;101411.16;;;10.63;53.49
38616;BME280;24370;51.986;4.666;2023-03-15T02:47:49;101422.53;;;10.51;54.15
38616;BME280;24370;51.986;4.666;2023-03-15T02:50:15;101419.03;;;10.67;53.49
38616;BME280;24370;51.986;4.666;2023-03-15T02:52:41;101414.66;;;10.54;53.44
38616;BME280;24370;51.986;4.666;2023-03-15T02:55:07;101422.50;;;10.57;53.87
38616;BME280;24370;51.986;4.666;2023-03-15T02:57:32;101424.25;;;10.58;53.23
38616;BME280;24370;51.986;4.666;2023-03-15T02:59:58;101437.28;;;10.23;53.89
38616;BME280;24370;51.986;4.666;2023-03-15T03:02:24;101438.19;;;10.42;53.55
38616;BME280;24370;51.986;4.666;2023-03-15T03:04:50;101439.94;;;10.55;53.30
38616;BME280;24370;51.986;4.666;2023-03-15T03:07:17;101446.88;;;10.56;52.96
38616;BME280;24370;51.986;4.666;2023-03-15T03:09:43;101456.50;;;10.42;52.97
38616;BME280;24370;51.986;4.666;2023-03-15T03:12:08;101472.09;;;10.25;54.36
38616;BME280;24370;51.986;4.666;2023-03-15T03:14:33;101466.88;;;10.14;54.28
38616;BME280;24370;51.986;4.666;2023-03-15T03:16:59;101471.22;;;10.27;53.40
38616;BME280;24370;51.986;4.666;2023-03-15T03:19:25;101462.50;;;10.19;53.70
38616;BME280;24370;51.986;4.666;2023-03-15T03:21:52;101473.03;;;10.38;54.29
38616;BME280;24370;51.986;4.666;2023-03-15T03:24:20;101478.22;;;10.22;53.77
38616;BME280;24370;51.986;4.666;2023-03-15T03:26:46;101480.00;;;10.39;53.04
38616;BME280;24370;51.986;4.666;2023-03-15T03:29:12;101480.00;;;10.45;53.27
38616;BME280;24370;51.986;4.666;2023-03-15T03:31:41;101481.72;;;10.30;54.05
38616;BME280;24370;51.986;4.666;2023-03-15T03:34:07;101492.22;;;10.63;54.05
38616;BME280;24370;51.986;4.666;2023-03-15T03:36:34;101492.22;;;10.83;53.65
38616;BME280;24370;51.986;4.666;2023-03-15T03:38:59;101492.19;;;11.11;52.90
38616;BME280;24370;51.986;4.666;2023-03-15T03:41:25;101508.59;;;9.91;56.55
38616;BME280;24370;51.986;4.666;2023-03-15T03:43:51;101523.94;;;8.27;66.00
38616;BME280;24370;51.986;4.666;2023-03-15T03:46:17;101525.59;;;8.19;64.53
38616;BME280;24370;51.986;4.666;2023-03-15T03:48:42;101526.78;;;7.74;65.55
38616;BME280;24370;51.986;4.666;2023-03-15T03:51:08;101518.94;;;7.08;69.17
38616;BME280;24370;51.986;4.666;2023-03-15T03:53:33;101534.63;;;7.75;66.56
38616;BME280;24370;51.986;4.666;2023-03-15T03:55:58;101524.91;;;7.63;68.01
38616;BME280;24370;51.986;4.666;2023-03-15T03:58:24;101531.81;;;8.35;62.97
38616;BME280;24370;51.986;4.666;2023-03-15T04:00:50;101542.22;;;8.32;64.42
38616;BME280;24370;51.986;4.666;2023-03-15T04:03:18;101544.91;;;8.40;64.44
38616;BME280;24370;51.986;4.666;2023-03-15T04:05:44;101540.56;;;9.42;58.85
38616;BME280;24370;51.986;4.666;2023-03-15T04:08:10;101533.81;;;9.81;56.78
38616;BME280;24370;51.986;4.666;2023-03-15T04:10:36;101536.25;;;9.48;55.88
38616;BME280;24370;51.986;4.666;2023-03-15T04:13:01;101549.75;;;8.90;58.01
38616;BME280;24370;51.986;4.666;2023-03-15T04:15:27;101549.44;;;9.72;56.53
38616;BME280;24370;51.986;4.666;2023-03-15T04:17:52;101547.75;;;9.88;55.66
38616;BME280;24370;51.986;4.666;2023-03-15T04:20:24;101560.06;;;10.21;53.69
38616;BME280;24370;51.986;4.666;2023-03-15T04:22:51;101560.03;;;10.12;53.70
38616;BME280;24370;51.986;4.666;2023-03-15T04:25:17;101565.34;;;10.32;53.30
38616;BME280;24370;51.986;4.666;2023-03-15T04:27:44;101566.91;;;9.91;53.94
38616;BME280;24370;51.986;4.666;2023-03-15T04:30:10;101568.66;;;9.92;54.18
38616;BME280;24370;51.986;4.666;2023-03-15T04:32:36;101557.38;;;10.02;54.64
38616;BME280;24370;51.986;4.666;2023-03-15T04:35:02;101567.91;;;10.29;53.96
38616;BME280;24370;51.986;4.666;2023-03-15T04:37:28;101562.66;;;10.16;54.21
38616;BME280;24370;51.986;4.666;2023-03-15T04:39:56;101573.06;;;10.02;55.22
38616;BME280;24370;51.986;4.666;2023-03-15T04:42:22;101570.47;;;10.15;55.02
38616;BME280;24370;51.986;4.666;2023-03-15T04:44:47;101585.41;;;10.45;54.12
38616;BME280;24370;51.986;4.666;2023-03-15T04:47:12;101589.84;;;10.65;53.87
38616;BME280;24370;51.986;4.666;2023-03-15T04:49:38;101597.69;;;10.63;54.51
38616;BME280;24370;51.986;4.666;2023-03-15T04:52:03;101594.19;;;10.75;53.68
38616;BME280;24370;51.986;4.666;2023-03-15T04:54:28;101596.75;;;10.43;53.64
38616;BME280;24370;51.986;4.666;2023-03-15T04:56:54;101607.22;;;10.52;54.13
38616;BME280;24370;51.986;4.666;2023-03-15T04:59:19;101603.78;;;10.62;53.22
38616;BME280;24370;51.986;4.666;2023-03-15T05:01:45;101598.47;;;10.38;53.74
38616;BME280;24370;51.986;4.666;2023-03-15T05:04:10;101602.91;;;10.69;53.29
38616;BME280;24370;51.986;4.666;2023-03-15T05:06:37;101606.34;;;10.58;54.19
38616;BME280;24370;51.986;4.666;2023-03-15T05:09:03;101607.28;;;10.74;52.98
38616;BME280;24370;51.986;4.666;2023-03-15T05:11:28;101614.28;;;10.84;51.74
38616;BME280;24370;51.986;4.666;2023-03-15T05:13:54;101612.44;;;10.46;53.20
38616;BME280;24370;51.986;4.666;2023-03-15T05:16:19;101617.66;;;10.46;53.32
38616;BME280;24370;51.986;4.666;2023-03-15T05:18:44;101622.94;;;10.55;53.11
38616;BME280;24370;51.986;4.666;2023-03-15T05:21:11;101619.41;;;10.56;52.41
38616;BME280;24370;51.986;4.666;2023-03-15T05:23:37;101627.31;;;10.59;53.52
38616;BME280;24370;51.986;4.666;2023-03-15T05:26:02;101635.13;;;10.68;52.99
38616;BME280;24370;51.986;4.666;2023-03-15T05:28:28;101631.69;;;10.79;52.49
38616;BME280;24370;51.986;4.666;2023-03-15T05:30:53;101630.84;;;10.92;52.98
38616;BME280;24370;51.986;4.666;2023-03-15T05:33:20;101636.03;;;10.69;52.86
38616;BME280;24370;51.986;4.666;2023-03-15T05:35:46;101633.41;;;10.74;52.64
38616;BME280;24370;51.986;4.666;2023-03-15T05:38:12;101631.66;;;10.73;53.14
38616;BME280;24370;51.986;4.666;2023-03-15T05:40:43;101644.78;;;10.91;53.07
38616;BME280;24370;51.986;4.666;2023-03-15T05:43:09;101627.25;;;10.58;53.86
38616;BME280;24370;51.986;4.666;2023-03-15T05:45:35;101646.50;;;10.88;53.53
38616;BME280;24370;51.986;4.666;2023-03-15T05:48:01;101638.66;;;10.67;53.34
38616;BME280;24370;51.986;4.666;2023-03-15T05:50:26;101644.78;;;10.93;51.96
38616;BME280;24370;51.986;4.666;2023-03-15T05:52:55;101648.25;;;10.73;52.52
38616;BME280;24370;51.986;4.666;2023-03-15T05:55:21;101645.59;;;10.68;52.34
38616;BME280;24370;51.986;4.666;2023-03-15T05:57:47;101665.66;;;10.69;52.06
38616;BME280;24370;51.986;4.666;2023-03-15T06:00:13;101666.63;;;11.09;50.44
38616;BME280;24370;51.986;4.666;2023-03-15T06:02:43;101665.75;;;11.16;49.99
38616;BME280;24370;51.986;4.666;2023-03-15T06:05:08;101682.09;;;10.38;51.59
38616;BME280;24370;51.986;4.666;2023-03-15T06:07:34;101688.38;;;10.80;50.59
38616;BME280;24370;51.986;4.666;2023-03-15T06:09:59;101697.06;;;10.77;51.38
38616;BME280;24370;51.986;4.666;2023-03-15T06:12:24;101706.31;;;10.06;51.91
38616;BME280;24370;51.986;4.666;2023-03-15T06:14:50;101718.59;;;10.22;51.79
38616;BME280;24370;51.986;4.666;2023-03-15T06:17:15;101718.38;;;9.88;53.40
38616;BME280;24370;51.986;4.666;2023-03-15T06:19:41;101715.94;;;10.17;51.97
38616;BME280;24370;51.986;4.666;2023-03-15T06:22:06;101724.69;;;10.26;51.98
38616;BME280;24370;51.986;4.666;2023-03-15T06:24:32;101727.28;;;10.21;52.20
38616;BME280;24370;51.986;4.666;2023-03-15T06:26:57;101737.22;;;9.50;53.36
38616;BME280;24370;51.986;4.666;2023-03-15T06:29:22;101740.84;;;9.69;54.38
38616;BME280;24370;51.986;4.666;2023-03-15T06:31:48;101747.25;;;10.10;52.75
38616;BME280;24370;51.986;4.666;2023-03-15T06:34:14;101753.53;;;10.37;51.53
38616;BME280;24370;51.986;4.666;2023-03-15T06:36:40;101754.72;;;9.60;53.65
38616;BME280;24370;51.986;4.666;2023-03-15T06:39:10;101754.50;;;9.39;54.63
38616;BME280;24370;51.986;4.666;2023-03-15T06:41:36;101755.63;;;8.81;56.89
38616;BME280;24370;51.986;4.666;2023-03-15T06:44:02;101760.59;;;9.38;55.75
38616;BME280;24370;51.986;4.666;2023-03-15T06:46:27;101760.81;;;9.64;55.27
38616;BME280;24370;51.986;4.666;2023-03-15T06:48:53;101758.59;;;10.15;53.56
38616;BME280;24370;51.986;4.666;2023-03-15T06:51:18;101765.94;;;9.55;54.66
38616;BME280;24370;51.986;4.666;2023-03-15T06:53:43;101770.59;;;9.88;54.29
38616;BME280;24370;51.986;4.666;2023-03-15T06:56:09;101777.31;;;9.58;55.44
38616;BME280;24370;51.986;4.666;2023-03-15T06:58:35;101784.44;;;9.78;54.94
38616;BME280;24370;51.986;4.666;2023-03-15T07:01:00;101786.16;;;9.76;54.71
38616;BME280;24370;51.986;4.666;2023-03-15T07:03:25;101786.47;;;10.16;53.32
38616;BME280;24370;51.986;4.666;2023-03-15T07:05:51;101788.03;;;9.89;54.13
38616;BME280;24370;51.986;4.666;2023-03-15T07:08:19;101795.22;;;10.19;53.67
38616;BME280;24370;51.986;4.666;2023-03-15T07:10:45;101804.09;;;10.42;52.17
38616;BME280;24370;51.986;4.666;2023-03-15T07:13:12;101800.63;;;10.43;51.73
38616;BME280;24370;51.986;4.666;2023-03-15T07:15:38;101803.97;;;10.29;53.02
38616;BME280;24370;51.986;4.666;2023-03-15T07:18:03;101803.25;;;10.47;52.67
38616;BME280;24370;51.986;4.666;2023-03-15T07:20:28;101805.69;;;10.27;53.39
38616;BME280;24370;51.986;4.666;2023-03-15T07:22:54;101815.28;;;10.22;53.32
38616;BME280;24370;51.986;4.666;2023-03-15T07:25:19;101805.81;;;10.40;53.62
38616;BME280;24370;51.986;4.666;2023-03-15T07:27:49;101818.16;;;10.59;52.95
38616;BME280;24370;51.986;4.666;2023-03-15T07:30:16;101823.47;;;10.78;52.32
38616;BME280;24370;51.986;4.666;2023-03-15T07:32:41;101826.00;;;10.61;53.09
38616;BME280;24370;51.986;4.666;2023-03-15T07:35:07;101828.56;;;10.56;53.07
38616;BME280;24370;51.986;4.666;2023-03-15T07:37:33;101824.94;;;10.35;53.97
38616;BME280;24370;51.986;4.666;2023-03-15T07:39:58;101823.25;;;10.44;54.12
38616;BME280;24370;51.986;4.666;2023-03-15T07:42:25;101820.00;;;10.79;53.44
38616;BME280;24370;51.986;4.666;2023-03-15T07:44:50;101833.97;;;10.90;51.81
38616;BME280;24370;51.986;4.666;2023-03-15T07:47:16;101836.53;;;10.78;51.83
38616;BME280;24370;51.986;4.666;2023-03-15T07:49:41;101838.19;;;10.60;53.02
38616;BME280;24370;51.986;4.666;2023-03-15T07:52:07;101844.56;;;11.18;52.78
38616;BME280;24370;51.986;4.666;2023-03-15T07:54:32;101855.22;;;12.15;51.02
38616;BME280;24370;51.986;4.666;2023-03-15T07:56:58;101843.84;;;14.18;47.39
38616;BME280;24370;51.986;4.666;2023-03-15T07:59:24;101844.41;;;15.27;47.88
38616;BME280;24370;51.986;4.666;2023-03-15T08:01:49;101851.03;;;15.56;42.34
38616;BME280;24370;51.986;4.666;2023-03-15T08:04:15;101848.09;;;16.32;41.64
38616;BME280;24370;51.986;4.666;2023-03-15T08:06:40;101855.91;;;16.37;41.41
38616;BME280;24370;51.986;4.666;2023-03-15T08:09:06;101853.19;;;15.90;40.37
38616;BME280;24370;51.986;4.666;2023-03-15T08:11:32;101852.41;;;17.25;39.35
38616;BME280;24370;51.986;4.666;2023-03-15T08:13:57;101857.69;;;16.35;38.89
38616;BME280;24370;51.986;4.666;2023-03-15T08:16:23;101857.94;;;16.71;40.08
38616;BME280;24370;51.986;4.666;2023-03-15T08:18:48;101869.69;;;17.01;38.13
38616;BME280;24370;51.986;4.666;2023-03-15T08:21:13;101865.66;;;17.24;38.00
38616;BME280;24370;51.986;4.666;2023-03-15T08:23:39;101870.75;;;16.42;37.36
38616;BME280;24370;51.986;4.666;2023-03-15T08:26:04;101870.56;;;16.02;38.38
38616;BME280;24370;51.986;4.666;2023-03-15T08:28:30;101887.72;;;15.04;40.72
38616;BME280;24370;51.986;4.666;2023-03-15T08:30:55;101886.13;;;13.87;41.72
38616;BME280;24370;51.986;4.666;2023-03-15T08:33:20;101892.00;;;14.21;41.47
38616;BME280;24370;51.986;4.666;2023-03-15T08:35:51;101892.13;;;14.07;41.46
38616;BME280;24370;51.986;4.666;2023-03-15T08:38:17;101893.19;;;13.82;40.71
38616;BME280;24370;51.986;4.666;2023-03-15T08:40:42;101898.88;;;12.77;42.29
38616;BME280;24370;51.986;4.666;2023-03-15T08:43:08;101893.34;;;13.60;41.20
38616;BME280;24370;51.986;4.666;2023-03-15T08:45:33;101900.59;;;12.84;43.10
38616;BME280;24370;51.986;4.666;2023-03-15T08:47:59;101894.28;;;13.47;42.21
38616;BME280;24370;51.986;4.666;2023-03-15T08:50:26;101896.97;;;13.22;42.13
38616;BME280;24370;51.986;4.666;2023-03-15T08:52:51;101893.50;;;13.07;42.16
38616;BME280;24370;51.986;4.666;2023-03-15T08:55:17;101894.47;;;12.88;42.75
38616;BME280;24370;51.986;4.666;2023-03-15T08:57:42;101903.91;;;13.32;43.17
38616;BME280;24370;51.986;4.666;2023-03-15T09:00:09;101896.25;;;12.66;44.19
38616;BME280;24370;51.986;4.666;2023-03-15T09:02:44;101899.75;;;12.54;44.26
38616;BME280;24370;51.986;4.666;2023-03-15T09:05:13;101905.03;;;12.23;44.73
38616;BME280;24370;51.986;4.666;2023-03-15T09:07:40;101900.63;;;12.68;44.44
38616;BME280;24370;51.986;4.666;2023-03-15T09:10:11;101890.16;;;12.53;45.56
38616;BME280;24370;51.986;4.666;2023-03-15T09:12:44;101891.88;;;12.72;44.37
38616;BME280;24370;51.986;4.666;2023-03-15T09:15:10;101892.78;;;12.65;44.15
38616;BME280;24370;51.986;4.666;2023-03-15T09:17:37;101887.34;;;13.21;42.99
38616;BME280;24370;51.986;4.666;2023-03-15T09:20:04;101890.31;;;14.14;42.51
38616;BME280;24370;51.986;4.666;2023-03-15T09:22:35;101877.63;;;16.00;39.17
38616;BME280;24370;51.986;4.666;2023-03-15T09:25:01;101873.59;;;17.24;34.45
38616;BME280;24370;51.986;4.666;2023-03-15T09:27:29;101874.84;;;17.86;33.38
38616;BME280;24370;51.986;4.666;2023-03-15T09:29:55;101876.91;;;18.78;33.70
38616;BME280;24370;51.986;4.666;2023-03-15T09:32:20;101880.06;;;18.26;33.15
38616;BME280;24370;51.986;4.666;2023-03-15T09:34:45;101882.19;;;19.41;33.47
38616;BME280;24370;51.986;4.666;2023-03-15T09:37:11;101880.47;;;19.68;30.81
38616;BME280;24370;51.986;4.666;2023-03-15T09:39:36;101889.91;;;19.77;29.46
38616;BME280;24370;51.986;4.666;2023-03-15T09:42:02;101891.56;;;20.87;27.98
38616;BME280;24370;51.986;4.666;2023-03-15T09:44:52;101892.81;;;19.69;28.24
38616;BME280;24370;51.986;4.666;2023-03-15T09:49:56;101894.25;;;20.08;27.51
38616;BME280;24370;51.986;4.666;2023-03-15T09:52:48;101883.97;;;21.47;27.23
38616;BME280;24370;51.986;4.666;2023-03-15T09:55:25;101894.22;;;19.82;25.31
38616;BME280;24370;51.986;4.666;2023-03-15T09:58:02;101893.81;;;20.22;27.64
38616;BME280;24370;51.986;4.666;2023-03-15T10:03:00;101895.41;;;20.53;25.79
38616;BME280;24370;51.986;4.666;2023-03-15T10:05:44;101903.50;;;20.23;25.75
38616;BME280;24370;51.986;4.666;2023-03-15T10:08:13;101898.16;;;21.47;25.11
38616;BME280;24370;51.986;4.666;2023-03-15T10:10:49;101909.97;;;19.29;25.49
38616;BME280;24370;51.986;4.666;2023-03-15T10:13:23;101911.06;;;18.89;25.62
38616;BME280;24370;51.986;4.666;2023-03-15T10:16:00;101904.50;;;20.45;24.95
38616;BME280;24370;51.986;4.666;2023-03-15T10:21:10;101901.69;;;20.23;25.05
38616;BME280;24370;51.986;4.666;2023-03-15T10:23:52;101926.03;;;18.57;23.95
38616;BME280;24370;51.986;4.666;2023-03-15T10:26:22;101925.41;;;18.47;26.00
38616;BME280;24370;51.986;4.666;2023-03-15T10:28:50;101937.31;;;18.98;25.71
38616;BME280;24370;51.986;4.666;2023-03-15T10:31:21;101928.31;;;19.93;24.63
38616;BME280;24370;51.986;4.666;2023-03-15T10:33:48;101931.66;;;20.00;24.86
38616;BME280;24370;51.986;4.666;2023-03-15T10:36:17;101938.09;;;19.93;24.11
38616;BME280;24370;51.986;4.666;2023-03-15T10:38:43;101938.38;;;18.58;24.86
38616;BME280;24370;51.986;4.666;2023-03-15T10:41:17;101940.28;;;19.19;24.37
38616;BME280;24370;51.986;4.666;2023-03-15T10:44:03;101952.00;;;19.41;24.29
38616;BME280;24370;51.986;4.666;2023-03-15T10:46:29;101946.81;;;19.66;24.77
38616;BME280;24370;51.986;4.666;2023-03-15T10:49:14;101949.94;;;19.81;25.48
38616;BME280;24370;51.986;4.666;2023-03-15T10:51:46;101947.06;;;19.89;25.66
38616;BME280;24370;51.986;4.666;2023-03-15T10:56:44;101950.69;;;20.68;25.97
38616;BME280;24370;51.986;4.666;2023-03-15T10:59:16;101955.59;;;19.98;25.95
38616;BME280;24370;51.986;4.666;2023-03-15T11:01:46;101958.06;;;19.45;26.81
38616;BME280;24370;51.986;4.666;2023-03-15T11:04:16;101956.75;;;19.60;25.27
38616;BME280;24370;51.986;4.666;2023-03-15T11:07:02;101966.41;;;19.62;26.46
38616;BME280;24370;51.986;4.666;2023-03-15T11:09:44;101971.00;;;18.58;26.86
38616;BME280;24370;51.986;4.666;2023-03-15T11:12:29;101978.25;;;18.50;27.12
38616;BME280;24370;51.986;4.666;2023-03-15T11:15:13;101981.44;;;19.32;25.59
38616;BME280;24370;51.986;4.666;2023-03-15T11:17:48;101977.13;;;19.28;25.64
38616;BME280;24370;51.986;4.666;2023-03-15T11:20:30;101978.31;;;18.12;26.09
38616;BME280;24370;51.986;4.666;2023-03-15T11:22:59;101975.69;;;18.11;25.21
38616;BME280;24370;51.986;4.666;2023-03-15T11:25:28;101964.66;;;18.64;25.49
38616;BME280;24370;51.986;4.666;2023-03-15T11:27:57;101968.25;;;18.63;28.04
38616;BME280;24370;51.986;4.666;2023-03-15T11:30:33;101969.59;;;18.07;26.89
38616;BME280;24370;51.986;4.666;2023-03-15T11:33:04;101970.31;;;18.14;27.58
38616;BME280;24370;51.986;4.666;2023-03-15T11:35:38;101960.31;;;19.89;25.86
38616;BME280;24370;51.986;4.666;2023-03-15T11:38:16;101970.84;;;18.99;25.06
38616;BME280;24370;51.986;4.666;2023-03-15T11:40:45;101964.03;;;18.54;27.69
38616;BME280;24370;51.986;4.666;2023-03-15T11:43:18;101968.00;;;18.00;28.48
38616;BME280;24370;51.986;4.666;2023-03-15T11:46:00;101968.06;;;17.12;29.03
38616;BME280;24370;51.986;4.666;2023-03-15T11:48:36;101966.41;;;18.65;27.63
38616;BME280;24370;51.986;4.666;2023-03-15T11:51:05;101960.78;;;19.12;25.30
38616;BME280;24370;51.986;4.666;2023-03-15T11:53:36;101963.47;;;19.10;26.23
38616;BME280;24370;51.986;4.666;2023-03-15T12:07:02;101967.53;;;18.91;25.29
38616;BME280;24370;51.986;4.666;2023-03-15T12:12:01;101970.28;;;17.76;28.16
38616;BME280;24370;51.986;4.666;2023-03-15T12:14:33;101968.59;;;17.72;28.76
38616;BME280;24370;51.986;4.666;2023-03-15T12:19:59;101972.47;;;17.56;27.62
38616;BME280;24370;51.986;4.666;2023-03-15T12:22:30;101969.41;;;17.32;27.95
38616;BME280;24370;51.986;4.666;2023-03-15T12:25:34;101973.69;;;16.94;29.81
38616;BME280;24370;51.986;4.666;2023-03-15T12:27:54;101973.25;;;17.59;28.36
38616;BME280;24370;51.986;4.666;2023-03-15T12:30:24;101966.94;;;17.24;29.49
38616;BME280;24370;51.986;4.666;2023-03-15T12:32:54;101961.94;;;17.53;29.56
38616;BME280;24370;51.986;4.666;2023-03-15T12:35:23;101967.38;;;17.03;27.51
38616;BME280;24370;51.986;4.666;2023-03-15T12:37:53;101966.00;;;16.78;28.57
38616;BME280;24370;51.986;4.666;2023-03-15T12:48:13;101969.41;;;17.32;28.48
38616;BME280;24370;51.986;4.666;2023-03-15T12:58:46;101955.88;;;17.88;27.23
38616;BME280;24370;51.986;4.666;2023-03-15T13:01:15;101964.50;;;17.13;28.54
38616;BME280;24370;51.986;4.666;2023-03-15T13:03:41;101950.56;;;16.57;29.20
38616;BME280;24370;51.986;4.666;2023-03-15T13:09:39;101942.47;;;16.15;28.24
38616;BME280;24370;51.986;4.666;2023-03-15T13:12:13;101944.03;;;16.25;28.77
38616;BME280;24370;51.986;4.666;2023-03-15T13:17:50;101935.16;;;16.32;29.91
38616;BME280;24370;51.986;4.666;2023-03-15T13:23:13;101950.66;;;17.02;29.56
38616;BME280;24370;51.986;4.666;2023-03-15T13:25:53;101944.00;;;16.79;29.36
38616;BME280;24370;51.986;4.666;2023-03-15T13:28:26;101952.09;;;17.19;27.60
38616;BME280;24370;51.986;4.666;2023-03-15T13:31:10;101953.75;;;17.65;27.76
38616;BME280;24370;51.986;4.666;2023-03-15T13:33:37;101963.50;;;17.21;28.20
38616;BME280;24370;51.986;4.666;2023-03-15T13:36:09;101969.25;;;17.41;28.00
38616;BME280;24370;51.986;4.666;2023-03-15T13:38:43;101968.84;;;17.61;28.37
38616;BME280;24370;51.986;4.666;2023-03-15T13:41:37;101963.28;;;17.32;28.31
38616;BME280;24370;51.986;4.666;2023-03-15T13:44:06;101962.06;;;16.53;28.99
38616;BME280;24370;51.986;4.666;2023-03-15T13:46:36;101960.59;;;17.75;28.31
38616;BME280;24370;51.986;4.666;2023-03-15T13:49:02;101961.38;;;16.93;28.57
38616;BME280;24370;51.986;4.666;2023-03-15T13:51:31;101954.19;;;16.50;29.12
38616;BME280;24370;51.986;4.666;2023-03-15T13:54:04;101964.44;;;16.68;29.11
38616;BME280;24370;51.986;4.666;2023-03-15T13:56:32;101962.03;;;16.54;30.88